Virtual Norwegian is not affiliated with Norwegian Air Shuttle in any way.
If you are looking for the real "Norwegian", or you wish to book Norwegian flights, please visit Norwegian.com


We use cookies to ensure you get the best experience on our website.   ACCEPT

LEBL - BCN - Barcelona (El Prat)

General Info Alternate Airport
ICAO: LEBL Elevation: 12 ft ICAO: LEGE
IATA: BCN Country: Spain IATA: GRO
City: Barcelona Charts: Log in to view charts City: Gerona
Name: El Prat Hub: Yes Name Girona
General Info
ICAO: LEBL
IATA: BCN
City: Barcelona
Name: El Prat
Elevation: 12 ft
Country: Spain
Charts: Log in to view charts
Hub: Yes
 
Alternate Airport
ICAO: LEGE
IATA: GRO
City: Gerona
Name: Girona

Weather
192030Z 16006KT 130V190 9999 FEW020 BKN032 25/20 Q1020 NOSIG
Weather
192030Z 16006KT 130V190 9999 FEW020 BKN032 25/20 Q1020 NOSIG

Runway Info
02
Length ILS/LOC Course
2528 m 108.75 019
07L
Length ILS/LOC Course
3352 m 110.30 066
07R
Length ILS/LOC Course
2660 m 110.75 066
20
Length ILS/LOC Heading
2528 m N/A 199
25L
Length ILS/LOC Course
2660 m 111.50 246
25R
Length ILS/LOC Course
3352 m 109.50 246

NOTAMs
NOTAMs currently unavailable.
NOTAMs
NOTAMs currently unavailable

Route map
Airport
Airport (hub)